sensor_id;sensor_type;location;lat;lon;timestamp;P1;durP1;ratioP1;P2;durP2;ratioP2
16760;SDS011;8498;52.516;13.790;2023-08-21T00:01:53;12.10;;;7.38;;
16760;SDS011;8498;52.516;13.790;2023-08-21T00:07:15;14.48;;;7.93;;
16760;SDS011;8498;52.516;13.790;2023-08-21T00:12:38;13.30;;;8.45;;
16760;SDS011;8498;52.516;13.790;2023-08-21T00:18:01;13.93;;;8.57;;
16760;SDS011;8498;52.516;13.790;2023-08-21T00:23:23;13.00;;;8.27;;
16760;SDS011;8498;52.516;13.790;2023-08-21T00:28:45;14.10;;;8.20;;
16760;SDS011;8498;52.516;13.790;2023-08-21T00:34:08;10.88;;;7.60;;
16760;SDS011;8498;52.516;13.790;2023-08-21T00:39:30;11.88;;;7.88;;
16760;SDS011;8498;52.516;13.790;2023-08-21T00:44:52;12.80;;;8.13;;
16760;SDS011;8498;52.516;13.790;2023-08-21T00:50:15;15.70;;;8.18;;
16760;SDS011;8498;52.516;13.790;2023-08-21T00:55:37;14.23;;;8.45;;
16760;SDS011;8498;52.516;13.790;2023-08-21T01:01:01;11.63;;;7.93;;
16760;SDS011;8498;52.516;13.790;2023-08-21T01:06:25;11.02;;;7.75;;
16760;SDS011;8498;52.516;13.790;2023-08-21T01:11:50;14.07;;;8.77;;
16760;SDS011;8498;52.516;13.790;2023-08-21T01:17:20;14.68;;;8.68;;
16760;SDS011;8498;52.516;13.790;2023-08-21T01:22:44;13.88;;;8.30;;
16760;SDS011;8498;52.516;13.790;2023-08-21T01:28:10;13.52;;;8.15;;
16760;SDS011;8498;52.516;13.790;2023-08-21T01:33:33;14.93;;;8.88;;
16760;SDS011;8498;52.516;13.790;2023-08-21T01:38:59;16.80;;;8.35;;
16760;SDS011;8498;52.516;13.790;2023-08-21T01:44:22;12.85;;;8.48;;
16760;SDS011;8498;52.516;13.790;2023-08-21T01:49:44;16.25;;;8.68;;
16760;SDS011;8498;52.516;13.790;2023-08-21T01:55:07;19.88;;;9.27;;
16760;SDS011;8498;52.516;13.790;2023-08-21T02:00:30;13.20;;;8.65;;
16760;SDS011;8498;52.516;13.790;2023-08-21T02:05:55;15.45;;;9.25;;
16760;SDS011;8498;52.516;13.790;2023-08-21T02:11:21;16.25;;;9.20;;
16760;SDS011;8498;52.516;13.790;2023-08-21T02:16:45;16.75;;;9.75;;
16760;SDS011;8498;52.516;13.790;2023-08-21T02:22:07;14.68;;;9.65;;
16760;SDS011;8498;52.516;13.790;2023-08-21T02:27:30;15.60;;;9.55;;
16760;SDS011;8498;52.516;13.790;2023-08-21T02:32:53;14.02;;;8.63;;
16760;SDS011;8498;52.516;13.790;2023-08-21T02:38:15;12.93;;;8.07;;
16760;SDS011;8498;52.516;13.790;2023-08-21T02:43:38;16.48;;;8.68;;
16760;SDS011;8498;52.516;13.790;2023-08-21T02:49:00;16.80;;;9.00;;
16760;SDS011;8498;52.516;13.790;2023-08-21T02:54:23;13.50;;;8.55;;
16760;SDS011;8498;52.516;13.790;2023-08-21T02:59:45;13.45;;;8.70;;
16760;SDS011;8498;52.516;13.790;2023-08-21T03:05:08;15.27;;;8.80;;
16760;SDS011;8498;52.516;13.790;2023-08-21T03:10:32;15.02;;;8.65;;
16760;SDS011;8498;52.516;13.790;2023-08-21T03:15:56;15.40;;;8.80;;
16760;SDS011;8498;52.516;13.790;2023-08-21T03:21:18;13.35;;;9.18;;
16760;SDS011;8498;52.516;13.790;2023-08-21T03:26:41;15.32;;;9.15;;
16760;SDS011;8498;52.516;13.790;2023-08-21T03:32:03;16.42;;;9.18;;
16760;SDS011;8498;52.516;13.790;2023-08-21T03:37:26;11.93;;;7.95;;
16760;SDS011;8498;52.516;13.790;2023-08-21T03:42:49;14.10;;;8.77;;
16760;SDS011;8498;52.516;13.790;2023-08-21T03:48:11;14.25;;;7.95;;
16760;SDS011;8498;52.516;13.790;2023-08-21T03:53:35;14.63;;;8.63;;
16760;SDS011;8498;52.516;13.790;2023-08-21T03:58:57;12.43;;;8.13;;
16760;SDS011;8498;52.516;13.790;2023-08-21T04:04:20;11.20;;;8.13;;
16760;SDS011;8498;52.516;13.790;2023-08-21T04:09:42;14.13;;;8.57;;
16760;SDS011;8498;52.516;13.790;2023-08-21T04:15:05;12.70;;;7.90;;
16760;SDS011;8498;52.516;13.790;2023-08-21T04:20:28;12.73;;;8.65;;
16760;SDS011;8498;52.516;13.790;2023-08-21T04:25:50;12.60;;;8.32;;
16760;SDS011;8498;52.516;13.790;2023-08-21T04:31:12;12.50;;;8.75;;
16760;SDS011;8498;52.516;13.790;2023-08-21T04:36:36;13.88;;;9.45;;
16760;SDS011;8498;52.516;13.790;2023-08-21T04:41:59;12.50;;;8.52;;
16760;SDS011;8498;52.516;13.790;2023-08-21T04:47:25;15.95;;;8.93;;
16760;SDS011;8498;52.516;13.790;2023-08-21T04:52:53;15.90;;;9.23;;
16760;SDS011;8498;52.516;13.790;2023-08-21T04:58:16;15.52;;;9.70;;
16760;SDS011;8498;52.516;13.790;2023-08-21T05:03:40;16.05;;;9.77;;
16760;SDS011;8498;52.516;13.790;2023-08-21T05:09:03;17.17;;;9.32;;
16760;SDS011;8498;52.516;13.790;2023-08-21T05:14:25;14.63;;;8.77;;
16760;SDS011;8498;52.516;13.790;2023-08-21T05:19:48;15.07;;;9.57;;
16760;SDS011;8498;52.516;13.790;2023-08-21T05:25:12;18.42;;;9.00;;
16760;SDS011;8498;52.516;13.790;2023-08-21T05:30:37;17.67;;;9.05;;
16760;SDS011;8498;52.516;13.790;2023-08-21T05:36:00;14.25;;;9.27;;
16760;SDS011;8498;52.516;13.790;2023-08-21T05:41:22;16.65;;;9.32;;
16760;SDS011;8498;52.516;13.790;2023-08-21T05:46:45;14.68;;;8.95;;
16760;SDS011;8498;52.516;13.790;2023-08-21T05:52:08;14.43;;;8.57;;
16760;SDS011;8498;52.516;13.790;2023-08-21T05:57:31;16.17;;;9.38;;
16760;SDS011;8498;52.516;13.790;2023-08-21T06:02:54;13.75;;;8.57;;
16760;SDS011;8498;52.516;13.790;2023-08-21T06:08:51;12.48;;;8.10;;
16760;SDS011;8498;52.516;13.790;2023-08-21T06:14:13;11.15;;;7.47;;
16760;SDS011;8498;52.516;13.790;2023-08-21T06:19:36;13.73;;;7.95;;
16760;SDS011;8498;52.516;13.790;2023-08-21T06:24:58;14.98;;;8.43;;
16760;SDS011;8498;52.516;13.790;2023-08-21T06:30:21;13.77;;;8.85;;
16760;SDS011;8498;52.516;13.790;2023-08-21T06:35:44;13.07;;;8.30;;
16760;SDS011;8498;52.516;13.790;2023-08-21T06:41:06;11.15;;;7.93;;
16760;SDS011;8498;52.516;13.790;2023-08-21T06:46:33;16.25;;;9.43;;
16760;SDS011;8498;52.516;13.790;2023-08-21T06:51:58;17.70;;;9.27;;
16760;SDS011;8498;52.516;13.790;2023-08-21T06:57:21;10.50;;;7.30;;
16760;SDS011;8498;52.516;13.790;2023-08-21T07:02:44;10.50;;;7.53;;
16760;SDS011;8498;52.516;13.790;2023-08-21T07:08:06;10.82;;;7.28;;
16760;SDS011;8498;52.516;13.790;2023-08-21T07:13:29;10.90;;;6.78;;
16760;SDS011;8498;52.516;13.790;2023-08-21T07:18:52;10.68;;;7.00;;
16760;SDS011;8498;52.516;13.790;2023-08-21T07:24:14;8.95;;;6.70;;
16760;SDS011;8498;52.516;13.790;2023-08-21T07:29:38;8.65;;;6.63;;
16760;SDS011;8498;52.516;13.790;2023-08-21T07:35:00;9.27;;;6.45;;
16760;SDS011;8498;52.516;13.790;2023-08-21T07:40:23;11.45;;;6.18;;
16760;SDS011;8498;52.516;13.790;2023-08-21T07:45:45;14.70;;;7.38;;
16760;SDS011;8498;52.516;13.790;2023-08-21T07:51:08;9.70;;;6.28;;
16760;SDS011;8498;52.516;13.790;2023-08-21T07:56:31;11.07;;;7.10;;
16760;SDS011;8498;52.516;13.790;2023-08-21T08:01:53;10.93;;;6.93;;
16760;SDS011;8498;52.516;13.790;2023-08-21T08:07:16;9.23;;;6.65;;
16760;SDS011;8498;52.516;13.790;2023-08-21T08:12:41;8.27;;;6.93;;
16760;SDS011;8498;52.516;13.790;2023-08-21T08:18:04;10.13;;;6.60;;
16760;SDS011;8498;52.516;13.790;2023-08-21T08:23:29;10.30;;;7.28;;
16760;SDS011;8498;52.516;13.790;2023-08-21T08:28:52;11.32;;;6.90;;
16760;SDS011;8498;52.516;13.790;2023-08-21T08:34:14;10.90;;;5.20;;
16760;SDS011;8498;52.516;13.790;2023-08-21T08:39:40;9.95;;;4.70;;
16760;SDS011;8498;52.516;13.790;2023-08-21T08:45:03;12.02;;;5.13;;
16760;SDS011;8498;52.516;13.790;2023-08-21T08:50:27;10.30;;;5.40;;
16760;SDS011;8498;52.516;13.790;2023-08-21T08:55:52;6.10;;;3.80;;
16760;SDS011;8498;52.516;13.790;2023-08-21T09:01:15;8.10;;;4.18;;
16760;SDS011;8498;52.516;13.790;2023-08-21T09:06:38;6.38;;;3.78;;
16760;SDS011;8498;52.516;13.790;2023-08-21T09:12:00;8.82;;;4.15;;
16760;SDS011;8498;52.516;13.790;2023-08-21T09:17:32;8.07;;;4.40;;
16760;SDS011;8498;52.516;13.790;2023-08-21T09:36:10;6.38;;;4.50;;
16760;SDS011;8498;52.516;13.790;2023-08-21T09:41:33;6.43;;;4.65;;
16760;SDS011;8498;52.516;13.790;2023-08-21T09:46:55;7.47;;;4.45;;
16760;SDS011;8498;52.516;13.790;2023-08-21T09:52:17;5.97;;;4.47;;
16760;SDS011;8498;52.516;13.790;2023-08-21T09:57:40;6.55;;;4.07;;
16760;SDS011;8498;52.516;13.790;2023-08-21T10:03:04;7.00;;;4.22;;
16760;SDS011;8498;52.516;13.790;2023-08-21T10:08:29;6.45;;;4.20;;
16760;SDS011;8498;52.516;13.790;2023-08-21T10:13:53;4.13;;;3.17;;
16760;SDS011;8498;52.516;13.790;2023-08-21T10:19:17;4.13;;;3.10;;
16760;SDS011;8498;52.516;13.790;2023-08-21T10:24:40;5.90;;;3.20;;
16760;SDS011;8498;52.516;13.790;2023-08-21T10:30:10;2.67;;;2.47;;
16760;SDS011;8498;52.516;13.790;2023-08-21T10:35:36;2.25;;;1.45;;
16760;SDS011;8498;52.516;13.790;2023-08-21T10:41:07;3.17;;;1.30;;
16760;SDS011;8498;52.516;13.790;2023-08-21T10:46:30;4.18;;;1.30;;
16760;SDS011;8498;52.516;13.790;2023-08-21T10:52:12;6.30;;;1.95;;
16760;SDS011;8498;52.516;13.790;2023-08-21T10:57:42;3.30;;;1.30;;
16760;SDS011;8498;52.516;13.790;2023-08-21T11:03:04;1.98;;;1.50;;
16760;SDS011;8498;52.516;13.790;2023-08-21T11:08:27;4.20;;;1.30;;
16760;SDS011;8498;52.516;13.790;2023-08-21T11:13:53;2.95;;;1.55;;
16760;SDS011;8498;52.516;13.790;2023-08-21T11:19:16;2.85;;;1.55;;
16760;SDS011;8498;52.516;13.790;2023-08-21T11:30:10;2.58;;;1.45;;
16760;SDS011;8498;52.516;13.790;2023-08-21T11:35:33;2.65;;;1.10;;
16760;SDS011;8498;52.516;13.790;2023-08-21T11:40:59;2.28;;;0.95;;
16760;SDS011;8498;52.516;13.790;2023-08-21T11:46:24;2.25;;;1.33;;
16760;SDS011;8498;52.516;13.790;2023-08-21T11:51:47;1.70;;;1.10;;
16760;SDS011;8498;52.516;13.790;2023-08-21T11:57:13;2.95;;;1.13;;
16760;SDS011;8498;52.516;13.790;2023-08-21T12:02:37;3.85;;;1.10;;
16760;SDS011;8498;52.516;13.790;2023-08-21T12:07:59;2.92;;;1.13;;
16760;SDS011;8498;52.516;13.790;2023-08-21T12:13:22;2.58;;;1.10;;
16760;SDS011;8498;52.516;13.790;2023-08-21T12:18:44;2.85;;;1.10;;
16760;SDS011;8498;52.516;13.790;2023-08-21T12:24:07;3.22;;;1.17;;
16760;SDS011;8498;52.516;13.790;2023-08-21T12:29:29;2.83;;;1.42;;
16760;SDS011;8498;52.516;13.790;2023-08-21T12:34:52;6.25;;;1.10;;
16760;SDS011;8498;52.516;13.790;2023-08-21T12:40:14;1.95;;;1.05;;
16760;SDS011;8498;52.516;13.790;2023-08-21T12:45:36;1.13;;;1.02;;
16760;SDS011;8498;52.516;13.790;2023-08-21T12:50:59;3.25;;;1.20;;
16760;SDS011;8498;52.516;13.790;2023-08-21T12:56:22;1.92;;;1.15;;
16760;SDS011;8498;52.516;13.790;2023-08-21T13:01:45;2.85;;;1.13;;
16760;SDS011;8498;52.516;13.790;2023-08-21T13:07:07;2.55;;;1.10;;
16760;SDS011;8498;52.516;13.790;2023-08-21T13:12:30;2.42;;;0.80;;
16760;SDS011;8498;52.516;13.790;2023-08-21T13:17:52;5.45;;;1.27;;
16760;SDS011;8498;52.516;13.790;2023-08-21T13:23:15;3.83;;;1.10;;
16760;SDS011;8498;52.516;13.790;2023-08-21T13:28:37;4.88;;;1.17;;
16760;SDS011;8498;52.516;13.790;2023-08-21T13:34:00;2.17;;;1.25;;
16760;SDS011;8498;52.516;13.790;2023-08-21T13:39:23;3.55;;;1.00;;
16760;SDS011;8498;52.516;13.790;2023-08-21T13:44:45;1.92;;;0.90;;
16760;SDS011;8498;52.516;13.790;2023-08-21T13:50:08;3.22;;;1.15;;
16760;SDS011;8498;52.516;13.790;2023-08-21T13:55:31;1.60;;;1.00;;
16760;SDS011;8498;52.516;13.790;2023-08-21T14:00:54;3.38;;;1.20;;
16760;SDS011;8498;52.516;13.790;2023-08-21T14:06:17;4.75;;;0.93;;
16760;SDS011;8498;52.516;13.790;2023-08-21T14:11:40;1.88;;;1.05;;
16760;SDS011;8498;52.516;13.790;2023-08-21T14:17:03;3.28;;;1.00;;
16760;SDS011;8498;52.516;13.790;2023-08-21T14:22:26;3.85;;;0.90;;
16760;SDS011;8498;52.516;13.790;2023-08-21T14:27:48;2.72;;;0.90;;
16760;SDS011;8498;52.516;13.790;2023-08-21T14:33:11;1.33;;;0.70;;
16760;SDS011;8498;52.516;13.790;2023-08-21T14:38:34;1.73;;;1.00;;
16760;SDS011;8498;52.516;13.790;2023-08-21T14:43:56;1.50;;;0.70;;
16760;SDS011;8498;52.516;13.790;2023-08-21T14:49:19;3.97;;;0.90;;
16760;SDS011;8498;52.516;13.790;2023-08-21T14:54:41;3.40;;;1.00;;
16760;SDS011;8498;52.516;13.790;2023-08-21T15:00:04;5.63;;;1.20;;
16760;SDS011;8498;52.516;13.790;2023-08-21T15:05:27;4.95;;;1.20;;
16760;SDS011;8498;52.516;13.790;2023-08-21T15:10:50;8.73;;;1.38;;
16760;SDS011;8498;52.516;13.790;2023-08-21T15:16:12;4.95;;;1.13;;
16760;SDS011;8498;52.516;13.790;2023-08-21T15:21:35;5.63;;;1.20;;
16760;SDS011;8498;52.516;13.790;2023-08-21T15:26:58;6.30;;;1.40;;
16760;SDS011;8498;52.516;13.790;2023-08-21T15:32:20;2.35;;;0.90;;
16760;SDS011;8498;52.516;13.790;2023-08-21T15:37:43;3.33;;;0.95;;
16760;SDS011;8498;52.516;13.790;2023-08-21T15:43:07;4.93;;;1.27;;
16760;SDS011;8498;52.516;13.790;2023-08-21T15:48:31;1.60;;;0.85;;
16760;SDS011;8498;52.516;13.790;2023-08-21T15:53:54;2.60;;;1.20;;
16760;SDS011;8498;52.516;13.790;2023-08-21T15:59:16;1.88;;;1.00;;
16760;SDS011;8498;52.516;13.790;2023-08-21T16:04:38;0.80;;;0.80;;
16760;SDS011;8498;52.516;13.790;2023-08-21T16:10:01;2.45;;;1.00;;
16760;SDS011;8498;52.516;13.790;2023-08-21T16:15:26;3.50;;;1.33;;
16760;SDS011;8498;52.516;13.790;2023-08-21T16:20:48;2.33;;;1.00;;
16760;SDS011;8498;52.516;13.790;2023-08-21T16:26:10;5.60;;;1.05;;
16760;SDS011;8498;52.516;13.790;2023-08-21T16:31:33;3.67;;;0.80;;
16760;SDS011;8498;52.516;13.790;2023-08-21T16:36:56;4.85;;;1.05;;
16760;SDS011;8498;52.516;13.790;2023-08-21T16:42:18;2.40;;;1.27;;
16760;SDS011;8498;52.516;13.790;2023-08-21T16:47:40;5.10;;;1.00;;
16760;SDS011;8498;52.516;13.790;2023-08-21T16:53:03;3.30;;;1.10;;
16760;SDS011;8498;52.516;13.790;2023-08-21T16:58:43;3.83;;;1.23;;
16760;SDS011;8498;52.516;13.790;2023-08-21T17:04:05;2.70;;;0.95;;
16760;SDS011;8498;52.516;13.790;2023-08-21T17:09:30;3.97;;;1.02;;
16760;SDS011;8498;52.516;13.790;2023-08-21T17:14:52;7.00;;;2.08;;
16760;SDS011;8498;52.516;13.790;2023-08-21T17:20:15;2.17;;;1.80;;
16760;SDS011;8498;52.516;13.790;2023-08-21T17:25:38;3.13;;;1.15;;
16760;SDS011;8498;52.516;13.790;2023-08-21T17:31:01;3.22;;;1.38;;
16760;SDS011;8498;52.516;13.790;2023-08-21T17:36:24;2.53;;;1.20;;
16760;SDS011;8498;52.516;13.790;2023-08-21T17:41:47;6.93;;;2.45;;
16760;SDS011;8498;52.516;13.790;2023-08-21T17:47:09;3.88;;;2.67;;
16760;SDS011;8498;52.516;13.790;2023-08-21T17:52:32;5.20;;;3.25;;
16760;SDS011;8498;52.516;13.790;2023-08-21T17:57:54;6.03;;;2.58;;
16760;SDS011;8498;52.516;13.790;2023-08-21T18:03:19;3.65;;;1.95;;
16760;SDS011;8498;52.516;13.790;2023-08-21T18:08:42;3.60;;;2.10;;
16760;SDS011;8498;52.516;13.790;2023-08-21T18:14:05;7.28;;;2.33;;
16760;SDS011;8498;52.516;13.790;2023-08-21T18:19:27;5.57;;;2.50;;
16760;SDS011;8498;52.516;13.790;2023-08-21T18:25:01;5.95;;;2.67;;
16760;SDS011;8498;52.516;13.790;2023-08-21T18:30:29;4.18;;;2.78;;
16760;SDS011;8498;52.516;13.790;2023-08-21T18:35:57;4.32;;;2.30;;
16760;SDS011;8498;52.516;13.790;2023-08-21T18:41:25;2.47;;;1.95;;
16760;SDS011;8498;52.516;13.790;2023-08-21T18:46:48;2.83;;;1.92;;
16760;SDS011;8498;52.516;13.790;2023-08-21T18:52:11;4.30;;;1.83;;
16760;SDS011;8498;52.516;13.790;2023-08-21T18:57:33;3.47;;;1.65;;
16760;SDS011;8498;52.516;13.790;2023-08-21T19:02:56;9.70;;;2.50;;
16760;SDS011;8498;52.516;13.790;2023-08-21T19:08:19;7.15;;;2.03;;
16760;SDS011;8498;52.516;13.790;2023-08-21T19:13:41;6.45;;;3.15;;
16760;SDS011;8498;52.516;13.790;2023-08-21T19:19:04;3.65;;;2.13;;
16760;SDS011;8498;52.516;13.790;2023-08-21T19:24:26;4.57;;;2.50;;
16760;SDS011;8498;52.516;13.790;2023-08-21T19:29:49;8.75;;;3.28;;
16760;SDS011;8498;52.516;13.790;2023-08-21T19:35:11;3.28;;;2.38;;
16760;SDS011;8498;52.516;13.790;2023-08-21T19:40:35;3.78;;;2.30;;
16760;SDS011;8498;52.516;13.790;2023-08-21T19:46:00;7.13;;;2.50;;
16760;SDS011;8498;52.516;13.790;2023-08-21T19:51:23;5.35;;;2.63;;
16760;SDS011;8498;52.516;13.790;2023-08-21T19:56:45;2.75;;;2.25;;
16760;SDS011;8498;52.516;13.790;2023-08-21T20:02:09;4.45;;;2.00;;
16760;SDS011;8498;52.516;13.790;2023-08-21T20:07:32;4.55;;;2.22;;
16760;SDS011;8498;52.516;13.790;2023-08-21T20:12:54;3.60;;;2.35;;
16760;SDS011;8498;52.516;13.790;2023-08-21T20:18:17;9.63;;;2.55;;
16760;SDS011;8498;52.516;13.790;2023-08-21T20:23:39;7.43;;;2.17;;
16760;SDS011;8498;52.516;13.790;2023-08-21T20:29:02;2.55;;;2.30;;
16760;SDS011;8498;52.516;13.790;2023-08-21T20:34:24;5.85;;;2.47;;
16760;SDS011;8498;52.516;13.790;2023-08-21T20:39:47;3.80;;;2.55;;
16760;SDS011;8498;52.516;13.790;2023-08-21T20:45:09;4.15;;;2.60;;
16760;SDS011;8498;52.516;13.790;2023-08-21T20:50:32;5.78;;;2.65;;
16760;SDS011;8498;52.516;13.790;2023-08-21T20:55:57;3.38;;;2.67;;
16760;SDS011;8498;52.516;13.790;2023-08-21T21:01:21;4.20;;;2.20;;
16760;SDS011;8498;52.516;13.790;2023-08-21T21:06:43;4.43;;;2.67;;
16760;SDS011;8498;52.516;13.790;2023-08-21T21:12:06;4.80;;;2.60;;
16760;SDS011;8498;52.516;13.790;2023-08-21T21:17:29;3.78;;;2.13;;
16760;SDS011;8498;52.516;13.790;2023-08-21T21:22:51;4.07;;;2.10;;
16760;SDS011;8498;52.516;13.790;2023-08-21T21:28:14;5.18;;;2.25;;
16760;SDS011;8498;52.516;13.790;2023-08-21T21:33:36;8.73;;;2.05;;
16760;SDS011;8498;52.516;13.790;2023-08-21T21:38:58;2.55;;;2.10;;
16760;SDS011;8498;52.516;13.790;2023-08-21T21:44:21;5.80;;;2.08;;
16760;SDS011;8498;52.516;13.790;2023-08-21T21:49:44;2.38;;;2.17;;
16760;SDS011;8498;52.516;13.790;2023-08-21T21:55:06;4.15;;;2.03;;
16760;SDS011;8498;52.516;13.790;2023-08-21T22:00:29;7.40;;;2.10;;
16760;SDS011;8498;52.516;13.790;2023-08-21T22:05:53;3.03;;;2.30;;
16760;SDS011;8498;52.516;13.790;2023-08-21T22:11:17;5.03;;;2.42;;
16760;SDS011;8498;52.516;13.790;2023-08-21T22:16:40;10.07;;;2.58;;
16760;SDS011;8498;52.516;13.790;2023-08-21T22:22:02;5.55;;;2.50;;
16760;SDS011;8498;52.516;13.790;2023-08-21T22:27:25;6.93;;;2.15;;
16760;SDS011;8498;52.516;13.790;2023-08-21T22:32:48;3.20;;;1.98;;
16760;SDS011;8498;52.516;13.790;2023-08-21T22:38:10;4.55;;;1.92;;
16760;SDS011;8498;52.516;13.790;2023-08-21T22:43:34;3.78;;;2.40;;
16760;SDS011;8498;52.516;13.790;2023-08-21T22:48:56;4.07;;;2.17;;
16760;SDS011;8498;52.516;13.790;2023-08-21T22:54:18;5.32;;;2.58;;
16760;SDS011;8498;52.516;13.790;2023-08-21T22:59:41;4.47;;;2.47;;
16760;SDS011;8498;52.516;13.790;2023-08-21T23:05:03;6.78;;;2.42;;
16760;SDS011;8498;52.516;13.790;2023-08-21T23:10:26;2.63;;;2.40;;
16760;SDS011;8498;52.516;13.790;2023-08-21T23:15:49;8.88;;;2.67;;
16760;SDS011;8498;52.516;13.790;2023-08-21T23:21:12;7.88;;;2.13;;
16760;SDS011;8498;52.516;13.790;2023-08-21T23:26:35;7.57;;;2.45;;
16760;SDS011;8498;52.516;13.790;2023-08-21T23:31:57;10.25;;;2.25;;
16760;SDS011;8498;52.516;13.790;2023-08-21T23:37:20;7.60;;;2.47;;
16760;SDS011;8498;52.516;13.790;2023-08-21T23:42:42;7.47;;;2.30;;
16760;SDS011;8498;52.516;13.790;2023-08-21T23:48:05;2.88;;;2.20;;
16760;SDS011;8498;52.516;13.790;2023-08-21T23:53:27;2.35;;;1.98;;
16760;SDS011;8498;52.516;13.790;2023-08-21T23:58:50;4.28;;;2.25;;
